Time;durP1;ratioP1;P1;durP2;ratioP2;P2;SDS_P1;SDS_P2;PMS_P1;PMS_P2;Temp;Humidity;BMP_temperature;BMP_pressure;BME280_temperature;BME280_humidity;BME280_pressure;Samples;Min_cycle;Max_cycle;Signal;HPM_P1;HPM_P2
2022/12/10 00:02:19;;;;;;;24.80;3.83;;;;;;;23.51;58.75;98406.91;7315251;19;131981;-72
2022/12/10 00:04:44;;;;;;;40.95;4.97;;;;;;;23.46;58.95;98412.69;7313641;19;132747;-71
2022/12/10 00:07:09;;;;;;;23.27;3.83;;;;;;;23.41;58.35;98409.81;7317233;19;129034;-72
2022/12/10 00:09:35;;;;;;;29.63;4.43;;;;;;;23.39;58.68;98411.78;7317457;19;129651;-72
2022/12/10 00:12:00;;;;;;;31.83;4.43;;;;;;;23.42;57.85;98413.25;7316042;19;129143;-71
2022/12/10 00:14:25;;;;;;;42.43;4.97;;;;;;;23.43;58.48;98407.00;7316877;19;130069;-73
2022/12/10 00:16:51;;;;;;;34.47;4.90;;;;;;;23.33;57.98;98386.28;7313332;19;130111;-72
2022/12/10 00:19:16;;;;;;;21.13;3.77;;;;;;;23.41;58.41;98398.50;7316081;19;129001;-72
2022/12/10 00:21:44;;;;;;;38.73;4.77;;;;;;;23.48;57.27;98410.72;7314118;19;128999;-71
2022/12/10 00:24:10;;;;;;;23.10;3.35;;;;;;;23.49;57.67;98412.34;7317139;19;129916;-73
2022/12/10 00:26:37;;;;;;;44.23;5.57;;;;;;;23.57;57.52;98412.25;7314306;19;130229;-71
2022/12/10 00:29:06;;;;;;;36.00;4.60;;;;;;;23.50;57.47;98394.78;7310496;19;131494;-71
2022/12/10 00:31:33;;;;;;;30.55;4.15;;;;;;;23.53;57.13;98400.50;7314793;19;131892;-72
2022/12/10 00:34:02;;;;;;;45.20;4.82;;;;;;;23.67;57.26;98415.41;7315890;19;129993;-71
2022/12/10 00:36:33;;;;;;;47.33;5.60;;;;;;;23.72;57.00;98413.06;7316905;19;130465;-70
2022/12/10 00:38:59;;;;;;;31.20;3.97;;;;;;;23.73;56.40;98406.84;7313408;19;129266;-71
2022/12/10 00:41:24;;;;;;;26.00;4.23;;;;;;;23.78;56.35;98412.34;7312724;19;132961;-72
2022/12/10 00:43:50;;;;;;;38.03;4.28;;;;;;;23.79;56.63;98413.97;7316551;19;129802;-70
2022/12/10 00:46:17;;;;;;;20.67;3.57;;;;;;;23.75;57.29;98414.53;7316430;19;129686;-73
2022/12/10 00:48:43;;;;;;;27.23;4.03;;;;;;;23.73;56.73;98412.09;7332621;19;129124;-72
2022/12/10 00:51:11;;;;;;;33.03;4.55;;;;;;;23.69;57.29;98416.06;7317373;19;129479;-72
2022/12/10 00:53:38;;;;;;;51.63;5.40;;;;;;;23.57;57.16;98403.56;7316666;19;129769;-70
2022/12/10 00:56:03;;;;;;;;;;;;;;;23.57;57.26;98419.31;7314315;19;129298;-73
2022/12/10 00:58:31;;;;;;;40.53;5.00;;;;;;;23.45;57.47;98403.22;7313273;19;129119;-70
2022/12/10 01:01:07;;;;;;;40.00;5.10;;;;;;;23.50;57.24;98419.22;7313552;19;129462;-74
2022/12/10 01:03:33;;;;;;;55.15;5.65;;;;;;;23.52;57.64;98422.47;7315623;19;130037;-71
2022/12/10 01:06:11;;;;;;;36.03;4.50;;;;;;;23.48;58.34;98426.47;7313065;19;129395;-72
2022/12/10 01:08:37;;;;;;;52.13;5.70;;;;;;;23.46;57.88;98428.44;7313348;19;130254;-73
2022/12/10 01:11:02;;;;;;;46.63;5.20;;;;;;;23.42;58.20;98421.91;7313047;19;129509;-74
2022/12/10 01:13:27;;;;;;;33.42;4.47;;;;;;;23.38;57.88;98425.06;7315664;19;129064;-73
2022/12/10 01:15:53;;;;;;;19.90;3.63;;;;;;;23.36;58.91;98425.25;7316184;19;129308;-74
2022/12/10 01:18:18;;;;;;;30.60;4.23;;;;;;;23.31;57.91;98424.97;7316623;19;129618;-73
2022/12/10 01:20:43;;;;;;;44.20;4.83;;;;;;;23.32;59.07;98425.81;7314027;19;130983;-74
2022/12/10 01:23:09;;;;;;;36.50;4.57;;;;;;;23.30;58.56;98418.13;7315092;19;132029;-76
2022/12/10 01:25:34;;;;;;;38.77;4.87;;;;;;;23.20;59.09;98407.03;7315985;19;129901;-75
2022/12/10 01:28:00;;;;;;;19.80;3.67;;;;;;;23.29;58.97;98426.16;7315972;19;129731;-75
2022/12/10 01:30:25;;;;;;;23.42;3.80;;;;;;;23.21;59.46;98408.66;7314641;19;129069;-75
2022/12/10 01:32:50;;;;;;;40.53;4.90;;;;;;;23.27;59.88;98428.16;7315417;19;129664;-74
2022/12/10 01:35:16;;;;;;;19.03;3.33;;;;;;;23.25;60.07;98430.91;7316104;19;129743;-75
2022/12/10 01:37:41;;;;;;;28.57;3.97;;;;;;;23.29;59.13;98431.41;7314787;19;129149;-76
2022/12/10 01:40:07;;;;;;;21.33;3.53;;;;;;;23.35;59.47;98431.50;7315345;19;129383;-75
2022/12/10 01:42:32;;;;;;;31.33;4.20;;;;;;;23.35;60.21;98441.19;7321068;19;131106;-74
2022/12/10 01:45:01;;;;;;;37.37;4.73;;;;;;;23.29;60.09;98442.69;7323119;19;128991;-77
2022/12/10 01:47:27;;;;;;;29.70;4.10;;;;;;;23.23;59.24;98443.38;7313137;19;131674;-74
2022/12/10 01:49:52;;;;;;;24.93;3.83;;;;;;;23.09;59.19;98423.19;7315536;19;129498;-74
2022/12/10 01:52:18;;;;;;;33.33;4.40;;;;;;;23.16;58.74;98442.47;7311548;19;132272;-74
2022/12/10 01:54:46;;;;;;;44.57;5.10;;;;;;;23.20;58.63;98443.75;7313005;19;129278;-72
2022/12/10 01:57:14;;;;;;;21.00;3.58;;;;;;;23.23;58.31;98435.53;7313658;19;129591;-73
2022/12/10 01:59:41;;;;;;;29.25;4.00;;;;;;;23.26;58.00;98437.78;7311424;19;130024;-74
2022/12/10 02:02:15;;;;;;;;;;;;;;;23.22;58.32;98433.91;7308300;19;130294;-71
2022/12/10 02:05:02;;;;;;;42.03;4.63;;;;;;;23.31;58.58;98432.84;7307725;19;130697;-72
2022/12/10 02:07:54;;;;;;;29.63;3.67;;;;;;;23.23;58.50;98412.75;7314254;19;128985;-71
2022/12/10 02:10:48;;;;;;;46.20;4.85;;;;;;;23.42;57.63;98432.41;7312875;19;129690;-71
2022/12/10 02:13:17;;;;;;;27.02;3.97;;;;;;;23.36;57.96;98412.16;7312685;19;130473;-69
2022/12/10 02:15:51;;;;;;;18.15;3.53;;;;;;;23.49;58.05;98435.94;7311705;19;129142;-72
2022/12/10 02:18:26;;;;;;;21.08;3.55;;;;;;;23.51;57.45;98420.84;7311714;19;129316;-71
2022/12/10 02:21:03;;;;;;;11.63;2.60;;;;;;;23.57;57.59;98420.13;7311883;19;129216;-71
2022/12/10 02:23:38;;;;;;;48.25;5.35;;;;;;;23.61;56.95;98418.78;7311860;19;130219;-72
2022/12/10 02:26:31;;;;;;;33.83;4.50;;;;;;;23.56;57.73;98418.50;7307866;19;130423;-72
2022/12/10 02:29:21;;;;;;;29.63;3.47;;;;;;;23.55;57.55;98426.56;7313694;19;128811;-72
2022/12/10 02:31:52;;;;;;;34.45;4.22;;;;;;;23.50;58.04;98418.41;7309062;19;133082;-70
2022/12/10 02:34:19;;;;;;;45.78;4.97;;;;;;;23.48;58.34;98410.72;7312456;19;129724;-70
2022/12/10 02:36:49;;;;;;;24.25;4.07;;;;;;;23.45;58.06;98426.81;7312091;19;131482;-72
2022/12/10 02:39:20;;;;;;;24.38;3.47;;;;;;;23.40;58.13;98412.59;7325916;19;128885;-72
2022/12/10 02:41:51;;;;;;;23.70;3.40;;;;;;;23.39;57.77;98422.28;7313041;19;130025;-72
2022/12/10 02:44:18;;;;;;;33.15;4.40;;;;;;;23.32;58.28;98416.09;7308668;19;132367;-70
2022/12/10 02:46:47;;;;;;;48.33;5.30;;;;;;;23.28;58.49;98414.84;7309884;19;130405;-70
2022/12/10 02:49:15;;;;;;;28.42;4.28;;;;;;;23.17;58.00;98402.16;7312798;19;129042;-70
2022/12/10 02:51:41;;;;;;;25.70;3.83;;;;;;;23.22;58.96;98416.34;7308915;19;132376;-72
2022/12/10 02:54:43;;;;;;;24.30;3.90;;;;;;;23.21;60.10;98419.97;7312412;19;129431;-71
2022/12/10 02:57:46;;;;;;;33.90;4.18;;;;;;;23.14;59.44;98421.66;7308667;19;129710;-72
2022/12/10 03:00:18;;;;;;;30.65;4.13;;;;;;;23.15;59.35;98425.13;7309483;19;129159;-72
2022/12/10 03:02:52;;;;;;;29.30;3.95;;;;;;;23.00;60.61;98411.16;7313041;19;129249;-71
2022/12/10 03:05:26;;;;;;;21.77;3.30;;;;;;;23.10;60.70;98435.31;7311020;19;130262;-71
2022/12/10 03:08:24;;;;;;;25.77;4.03;;;;;;;22.99;61.94;98410.31;7312632;19;130159;-73
2022/12/10 03:11:13;;;;;;;29.50;3.72;;;;;;;23.12;61.08;98436.75;7309369;19;129398;-73
2022/12/10 03:14:03;;;;;;;20.67;3.40;;;;;;;23.13;61.46;98432.34;7319319;19;129917;-74
2022/12/10 03:16:34;;;;;;;19.20;3.47;;;;;;;23.12;60.21;98436.75;7318612;19;129708;-75
2022/12/10 03:19:05;;;;;;;37.25;3.97;;;;;;;23.16;60.25;98438.03;7319630;19;129262;-73
2022/12/10 03:21:33;;;;;;;40.67;4.35;;;;;;;23.12;59.48;98441.19;7318385;19;129210;-73
2022/12/10 03:23:58;;;;;;;34.40;4.07;;;;;;;23.09;58.43;98436.28;7319524;19;129242;-70
2022/12/10 03:26:25;;;;;;;43.60;4.70;;;;;;;23.08;58.72;98439.91;7318477;19;130394;-69
2022/12/10 03:28:57;;;;;;;29.95;3.88;;;;;;;23.12;58.97;98446.44;7314324;19;130283;-73
2022/12/10 03:31:23;;;;;;;18.10;3.13;;;;;;;23.13;58.56;98440.19;7318730;19;128735;-72
2022/12/10 03:33:49;;;;;;;39.63;4.73;;;;;;;23.21;58.38;98442.75;7331265;19;129575;-71
2022/12/10 03:36:16;;;;;;;32.15;4.05;;;;;;;23.38;57.92;98441.63;7318955;19;130484;-78
2022/12/10 03:38:43;;;;;;;38.17;4.40;;;;;;;23.58;57.12;98442.75;7316510;19;129117;-75
2022/12/10 03:41:08;;;;;;;37.70;4.20;;;;;;;23.73;56.93;98437.50;7316513;19;130562;-72
2022/12/10 03:43:34;;;;;;;31.35;3.90;;;;;;;24.03;56.32;98453.06;7319180;19;129755;-74
2022/12/10 03:45:59;;;;;;;31.00;4.03;;;;;;;24.23;55.38;98454.13;7319021;19;129985;-72
2022/12/10 03:48:24;;;;;;;54.13;5.05;;;;;;;24.38;55.31;98454.09;7315632;19;129003;-66
2022/12/10 03:50:50;;;;;;;35.47;4.00;;;;;;;24.47;54.99;98445.13;7317613;19;129918;-71
2022/12/10 03:53:15;;;;;;;30.83;3.70;;;;;;;24.60;54.15;98447.06;7319176;19;129170;-69
2022/12/10 03:55:40;;;;;;;21.30;3.17;;;;;;;24.66;54.11;98441.88;7316953;19;129384;-72
2022/12/10 03:58:06;;;;;;;60.00;5.87;;;;;;;24.65;54.22;98437.63;7316729;19;129251;-72
2022/12/10 04:00:31;;;;;;;27.37;3.30;;;;;;;24.73;54.00;98434.06;7317142;19;128921;-71
2022/12/10 04:02:56;;;;;;;12.57;2.60;;;;;;;24.76;53.73;98434.53;7318408;19;129105;-70
2022/12/10 04:05:22;;;;;;;32.35;3.78;;;;;;;24.74;53.62;98425.22;7313759;19;131186;-73
2022/12/10 04:07:47;;;;;;;47.78;5.00;;;;;;;24.92;53.96;98438.72;7315371;19;130295;-73
2022/12/10 04:10:12;;;;;;;40.30;4.17;;;;;;;24.89;53.65;98436.47;7316055;19;128983;-72
2022/12/10 04:12:38;;;;;;;21.50;2.87;;;;;;;24.90;53.58;98432.81;7316236;19;132211;-72
2022/12/10 04:17:48;;;;;;;22.30;3.40;;;;;;;24.96;53.68;98443.41;7318124;19;129319;-75
2022/12/10 04:28:25;;;;;;;17.77;2.47;;;;;;;25.04;53.53;98443.25;7324325;19;129191;-76
2022/12/10 04:30:51;;;;;;;11.07;2.37;;;;;;;24.99;54.05;98439.59;7335928;19;129145;-79
2022/12/10 04:33:16;;;;;;;21.00;3.17;;;;;;;24.92;53.14;98429.03;7320747;19;129069;-77
2022/12/10 04:35:41;;;;;;;38.40;4.00;;;;;;;25.05;53.85;98444.09;7319449;19;132246;-79
2022/12/10 04:38:07;;;;;;;25.47;3.00;;;;;;;25.03;53.87;98440.84;7321650;19;128859;-76
2022/12/10 04:40:32;;;;;;;27.83;3.33;;;;;;;25.04;53.59;98442.47;7318176;19;129549;-78
2022/12/10 04:42:58;;;;;;;32.30;3.70;;;;;;;25.05;53.60;98433.56;7316885;19;132054;-77
2022/12/10 04:45:23;;;;;;;26.20;3.07;;;;;;;25.03;53.45;98443.47;7316565;19;133130;-75
2022/12/10 04:47:48;;;;;;;26.40;3.53;;;;;;;25.00;53.60;98442.03;7317397;19;129576;-75
2022/12/10 04:50:14;;;;;;;22.40;3.03;;;;;;;24.97;53.84;98439.78;7317302;19;129591;-78
2022/12/10 04:52:39;;;;;;;32.37;3.60;;;;;;;24.96;53.69;98442.59;7315845;19;131730;-75
2022/12/10 04:55:05;;;;;;;60.33;5.87;;;;;;;24.91;53.76;98437.06;7314980;19;132290;-72
2022/12/10 04:57:30;;;;;;;25.13;3.23;;;;;;;24.91;53.99;98437.06;7319123;19;128963;-75
2022/12/10 04:59:56;;;;;;;23.67;3.17;;;;;;;24.86;54.29;98440.28;7315746;19;128905;-75
2022/12/10 05:02:21;;;;;;;28.33;3.40;;;;;;;24.79;54.07;98433.34;7318591;19;130561;-75
2022/12/10 05:04:48;;;;;;;28.73;3.63;;;;;;;24.69;54.56;98422.31;7316425;19;129775;-75
2022/12/10 05:07:14;;;;;;;26.05;3.22;;;;;;;24.67;54.61;98434.81;7317605;19;128872;-75
2022/12/10 05:09:39;;;;;;;24.87;3.07;;;;;;;24.55;54.91;98431.84;7317483;19;130588;-76
2022/12/10 05:12:05;;;;;;;37.37;4.20;;;;;;;24.45;55.34;98436.59;7313813;19;133487;-79
2022/12/10 05:14:30;;;;;;;26.00;3.63;;;;;;;24.40;55.45;98433.72;7316739;19;133658;-78
2022/12/10 05:16:55;;;;;;;27.17;3.53;;;;;;;24.36;55.32;98443.78;7315498;19;129291;-78
2022/12/10 05:19:23;;;;;;;31.50;4.27;;;;;;;24.23;54.62;98427.88;7315634;19;129144;-80
2022/12/10 05:24:32;;;;;;;18.65;4.88;;;;;;;24.22;51.28;98435.94;7321291;19;129924;-78
2022/12/10 05:26:58;;;;;;;24.00;4.70;;;;;;;24.19;52.30;98442.38;7317281;19;128874;-76
2022/12/10 05:29:23;;;;;;;43.00;5.80;;;;;;;24.14;52.85;98439.50;7317212;19;129146;-77
2022/12/10 05:31:48;;;;;;;21.83;4.73;;;;;;;23.98;53.72;98418.66;7314361;19;129721;-80
2022/12/10 05:34:14;;;;;;;37.70;5.90;;;;;;;24.00;54.33;98429.81;7318888;19;130813;-79
2022/12/10 05:36:40;;;;;;;22.43;4.43;;;;;;;23.84;54.66;98419.47;7316935;19;128993;-76
2022/12/10 05:39:05;;;;;;;23.43;4.77;;;;;;;23.87;54.79;98432.25;7317422;19;128970;-81
2022/12/10 05:41:34;;;;;;;32.77;5.23;;;;;;;23.87;55.57;98436.66;7318486;19;132133;-73
2022/12/10 05:44:00;;;;;;;26.77;4.43;;;;;;;23.84;55.01;98442.28;7315088;19;132464;-74
2022/12/10 05:46:28;;;;;;;24.60;4.90;;;;;;;23.78;55.17;98443.03;7313134;19;129026;-72
2022/12/10 05:48:54;;;;;;;32.92;5.43;;;;;;;23.76;56.09;98445.84;7316395;19;128995;-74
2022/12/10 05:51:26;;;;;;;26.60;4.80;;;;;;;23.64;56.44;98428.91;7314556;19;129493;-73
2022/12/10 05:53:53;;;;;;;46.90;5.80;;;;;;;23.64;56.44;98439.41;7315636;19;129530;-73
2022/12/10 05:56:21;;;;;;;20.58;4.40;;;;;;;23.58;56.79;98440.13;7316696;19;128637;-75
2022/12/10 05:58:49;;;;;;;28.50;4.55;;;;;;;23.55;56.78;98443.09;7314780;19;130273;-76
2022/12/10 06:01:19;;;;;;;31.23;5.22;;;;;;;23.49;56.92;98443.81;7312410;19;132467;-75
2022/12/10 06:03:45;;;;;;;39.30;5.63;;;;;;;23.43;57.24;98441.09;7314416;19;131960;-79
2022/12/10 06:06:11;;;;;;;23.20;4.30;;;;;;;23.43;57.15;98444.53;7318096;19;129028;-78
2022/12/10 06:08:36;;;;;;;29.60;4.70;;;;;;;23.37;56.95;98454.94;7317835;19;129336;-78
2022/12/10 06:11:08;;;;;;;26.33;4.40;;;;;;;23.34;57.55;98450.84;7315293;19;129720;-74
2022/12/10 06:13:33;;;;;;;37.35;5.05;;;;;;;23.35;57.00;98452.50;7315856;19;129191;-78
2022/12/10 06:15:58;;;;;;;32.93;4.80;;;;;;;23.26;56.99;98437.78;7314604;19;129470;-76
2022/12/10 06:18:24;;;;;;;19.47;4.37;;;;;;;23.31;57.24;98451.22;7315713;19;129492;-75
2022/12/10 06:20:50;;;;;;;3.70;3.20;;;;;;;23.31;57.31;98448.59;7320184;19;129152;-76
2022/12/10 06:23:16;;;;;;;52.43;6.43;;;;;;;23.34;57.81;98456.09;7326935;19;130842;-75
2022/12/10 06:25:41;;;;;;;44.17;5.70;;;;;;;23.37;57.84;98454.94;7312391;19;129785;-72
2022/12/10 06:28:08;;;;;;;31.20;5.07;;;;;;;23.39;57.53;98459.00;7314061;19;128912;-73
2022/12/10 06:30:34;;;;;;;29.05;4.70;;;;;;;23.43;57.21;98465.53;7313801;19;130010;-74
2022/12/10 06:32:59;;;;;;;36.00;5.30;;;;;;;23.46;56.98;98459.09;7315461;19;129258;-76
2022/12/10 06:35:25;;;;;;;20.63;4.25;;;;;;;23.49;57.03;98474.47;7311786;19;129223;-78
2022/12/10 06:37:50;;;;;;;33.55;4.60;;;;;;;23.50;56.59;98463.81;7313265;19;130581;-66
2022/12/10 06:40:16;;;;;;;58.07;6.63;;;;;;;23.57;57.07;98469.97;7305317;19;130461;-67
2022/12/10 06:42:41;;;;;;;34.67;5.30;;;;;;;23.59;56.39;98465.34;7308505;19;129256;-66
2022/12/10 06:45:07;;;;;;;50.83;6.90;;;;;;;23.65;56.89;98475.13;7310427;19;130199;-68
2022/12/10 06:47:33;;;;;;;21.60;4.30;;;;;;;23.69;56.42;98473.78;7310012;19;128759;-67
2022/12/10 06:49:58;;;;;;;29.70;4.90;;;;;;;23.75;56.26;98480.94;7309608;19;129555;-76
2022/12/10 06:52:23;;;;;;;37.30;5.03;;;;;;;23.77;55.86;98481.56;7312328;19;131876;-74
2022/12/10 06:54:49;;;;;;;33.60;4.83;;;;;;;23.80;56.45;98475.94;7315463;19;129000;-77
2022/12/10 06:57:14;;;;;;;26.63;4.23;;;;;;;23.83;55.97;98480.84;7312189;19;129195;-73
2022/12/10 06:59:40;;;;;;;17.73;4.23;;;;;;;23.84;56.29;98479.84;7309563;19;132983;-79
2022/12/10 07:02:09;;;;;;;18.70;3.72;;;;;;;23.79;56.34;98466.47;7313034;19;129035;-76
2022/12/10 07:04:35;;;;;;;;;;;;;;;23.84;56.60;98485.09;7316509;19;128700;-75
2022/12/10 07:07:00;;;;;;;14.77;3.33;;;;;;;23.81;55.35;98469.72;7315240;19;128657;-81
2022/12/10 07:09:25;;;;;;;17.33;3.83;;;;;;;23.99;55.90;98483.34;7317287;19;129578;-78
2022/12/10 07:11:51;;;;;;;32.20;5.10;;;;;;;23.95;55.37;98492.53;7312741;19;132141;-82
2022/12/10 07:14:17;;;;;;;11.73;3.63;;;;;;;24.05;54.89;98487.03;7315482;19;128907;-74
2022/12/10 07:16:43;;;;;;;15.18;4.53;;;;;;;24.02;54.06;98492.63;7321135;19;128597;-76
2022/12/10 07:19:10;;;;;;;41.07;5.57;;;;;;;23.99;54.46;98488.59;7319675;19;131203;-75
2022/12/10 07:21:39;;;;;;;31.70;4.95;;;;;;;23.89;54.87;98482.75;7312589;19;129711;-74
2022/12/10 07:24:08;;;;;;;23.75;4.55;;;;;;;23.72;55.13;98476.03;7312016;19;128996;-76
2022/12/10 07:26:36;;;;;;;25.45;4.55;;;;;;;23.71;55.83;98479.69;7311819;19;129367;-76
2022/12/10 07:29:03;;;;;;;32.50;5.07;;;;;;;23.61;56.03;98473.03;7312986;19;129742;-74
2022/12/10 07:31:28;;;;;;;32.22;4.75;;;;;;;23.67;56.42;98498.59;7310265;19;132810;-75
2022/12/10 07:33:56;;;;;;;32.07;4.63;;;;;;;23.61;56.14;98497.50;7313839;19;128924;-75
2022/12/10 07:36:23;;;;;;;29.67;4.78;;;;;;;23.57;56.20;98498.81;7313255;19;129958;-75
2022/12/10 07:38:50;;;;;;;22.95;3.97;;;;;;;23.55;56.69;98506.06;7312210;19;132231;-75
2022/12/10 07:41:15;;;;;;;36.85;5.25;;;;;;;23.52;57.24;98497.75;7312367;19;129475;-73
2022/12/10 07:43:43;;;;;;;34.23;5.23;;;;;;;23.49;57.17;98500.69;7314250;19;128924;-73
2022/12/10 07:46:18;;;;;;;42.58;5.43;;;;;;;23.43;57.16;98507.50;7310206;19;131678;-76
2022/12/10 07:48:47;;;;;;;26.80;4.18;;;;;;;23.41;58.06;98506.84;7312661;19;129500;-73
2022/12/10 07:51:13;;;;;;;35.45;5.13;;;;;;;23.34;57.70;98508.53;7309784;19;131992;-75
2022/12/10 07:53:38;;;;;;;43.42;5.80;;;;;;;23.26;57.55;98505.97;7309674;19;129756;-72
2022/12/10 07:56:06;;;;;;;52.42;6.30;;;;;;;23.22;57.96;98510.75;7310221;19;129263;-71
2022/12/10 07:58:31;;;;;;;23.30;4.43;;;;;;;23.10;57.79;98485.13;7310141;19;131809;-72
2022/12/10 08:00:57;;;;;;;47.93;5.90;;;;;;;23.05;57.52;98493.53;7314383;19;132211;-70
2022/12/10 08:03:23;;;;;;;31.17;4.43;;;;;;;23.12;58.37;98512.00;7317642;19;128859;-71
2022/12/10 08:05:59;;;;;;;20.98;4.05;;;;;;;23.10;57.84;98506.09;7317855;19;129348;-72
2022/12/10 08:08:25;;;;;;;28.10;4.65;;;;;;;23.09;59.18;98507.06;7317537;19;129184;-76
2022/12/10 08:10:50;;;;;;;19.17;4.50;;;;;;;23.06;58.66;98516.13;7318383;19;129689;-69
2022/12/10 08:13:15;;;;;;;10.30;3.60;;;;;;;23.04;59.26;98518.09;7333900;19;128738;-73
2022/12/10 08:15:41;;;;;;;24.73;4.80;;;;;;;23.05;58.31;98514.50;7318900;19;128860;-72
2022/12/10 08:18:06;;;;;;;34.43;4.57;;;;;;;23.03;58.57;98520.91;7317650;19;129715;-70
2022/12/10 08:20:31;;;;;;;41.13;5.20;;;;;;;23.03;59.16;98519.09;7313683;19;129358;-70
2022/12/10 08:22:57;;;;;;;16.87;3.73;;;;;;;22.92;59.26;98503.75;7318714;19;128877;-72
2022/12/10 08:25:22;;;;;;;54.43;5.80;;;;;;;23.03;59.75;98526.13;7313886;19;130227;-73
2022/12/10 08:27:47;;;;;;;36.10;5.13;;;;;;;23.06;60.07;98525.78;7317259;19;129833;-70
2022/12/10 08:30:13;;;;;;;52.90;6.17;;;;;;;22.98;59.66;98517.97;7316085;19;129728;-70
2022/12/10 08:32:38;;;;;;;11.30;3.00;;;;;;;22.84;59.89;98508.25;7317822;19;129472;-73
2022/12/10 08:35:04;;;;;;;51.92;6.07;;;;;;;22.92;60.20;98521.31;7315930;19;131211;-72
2022/12/10 08:37:29;;;;;;;45.67;5.63;;;;;;;22.92;59.55;98523.94;7316693;19;129233;-70
2022/12/10 08:39:55;;;;;;;43.43;5.30;;;;;;;22.87;59.67;98526.25;7315622;19;129499;-71
2022/12/10 08:42:20;;;;;;;21.63;3.97;;;;;;;22.86;59.60;98529.84;7318121;19;129241;-73
2022/12/10 08:44:45;;;;;;;37.80;5.20;;;;;;;22.84;60.05;98532.66;7315111;19;129163;-70
2022/12/10 08:47:11;;;;;;;28.33;4.50;;;;;;;22.83;59.90;98538.06;7315624;19;129840;-71
2022/12/10 08:49:36;;;;;;;41.72;5.25;;;;;;;22.82;60.32;98533.81;7313716;19;131122;-71
2022/12/10 08:52:01;;;;;;;32.83;4.90;;;;;;;22.71;59.18;98519.28;7312301;19;130435;-72
2022/12/10 08:54:27;;;;;;;23.20;4.60;;;;;;;22.77;60.55;98541.38;7317108;19;128769;-71
2022/12/10 08:56:53;;;;;;;70.13;7.30;;;;;;;22.72;59.53;98539.28;7313003;19;129346;-70
2022/12/10 08:59:18;;;;;;;32.17;4.45;;;;;;;22.73;60.64;98550.56;7312003;19;130752;-69
2022/12/10 09:01:44;;;;;;;30.50;4.97;;;;;;;22.71;60.19;98542.09;7314354;19;129045;-69
2022/12/10 09:04:09;;;;;;;25.27;4.20;;;;;;;22.68;59.71;98550.25;7312808;19;130649;-72
2022/12/10 09:06:37;;;;;;;35.15;5.03;;;;;;;22.60;60.63;98550.31;7316158;19;132215;-73
2022/12/10 09:09:03;;;;;;;32.25;4.38;;;;;;;22.61;60.35;98546.72;7325188;19;132168;-72
2022/12/10 09:11:32;;;;;;;30.70;4.33;;;;;;;22.62;61.29;98551.78;7312501;19;130523;-70
2022/12/10 09:13:58;;;;;;;24.80;4.53;;;;;;;22.52;60.40;98532.81;7314478;19;129161;-72
2022/12/10 09:16:32;;;;;;;42.00;5.03;;;;;;;22.65;62.10;98553.22;7313424;19;129256;-70
2022/12/10 09:18:57;;;;;;;36.33;4.72;;;;;;;22.66;61.05;98549.63;7316108;19;129782;-72
2022/12/10 09:21:23;;;;;;;30.03;4.43;;;;;;;22.66;60.05;98549.63;7314660;19;128900;-72
2022/12/10 09:23:49;;;;;;;32.38;4.57;;;;;;;;;;7314353;19;128792;-71
2022/12/10 09:26:16;;;;;;;52.15;5.75;;;;;;;22.63;60.47;98548.16;7314524;19;129385;-71
2022/12/10 09:28:42;;;;;;;57.97;5.93;;;;;;;22.66;60.99;98550.44;7314983;19;130050;-73
2022/12/10 09:31:08;;;;;;;;;;;;;;;22.68;62.17;98550.25;7314971;19;128945;-73
2022/12/10 09:33:35;;;;;;;47.15;5.25;;;;;;;22.65;60.72;98548.00;7313268;19;129301;-72
2022/12/10 09:36:02;;;;;;;;;;;;;;;22.68;62.28;98545.03;7315555;19;129548;-71
2022/12/10 09:38:27;;;;;;;40.40;4.75;;;;;;;22.73;61.33;98546.16;7315623;19;129678;-71
2022/12/10 09:41:10;;;;;;;22.07;3.73;;;;;;;22.77;61.86;98551.88;7314107;19;129507;-73
2022/12/10 09:44:06;;;;;;;32.28;4.47;;;;;;;22.65;62.21;98532.28;7314476;19;129340;-73
2022/12/10 09:46:51;;;;;;;41.25;5.78;;;;;;;22.76;61.64;98552.84;7313876;19;129659;-72
2022/12/10 09:49:56;;;;;;;38.80;5.03;;;;;;;22.79;61.71;98560.38;7313232;19;130288;-74
2022/12/10 09:52:25;;;;;;;37.08;4.97;;;;;;;22.81;60.83;98553.13;7313791;19;129364;-73
2022/12/10 09:55:12;;;;;;;30.25;4.82;;;;;;;22.80;61.52;98548.91;7312444;19;129602;-72
2022/12/10 09:57:53;;;;;;;36.15;4.78;;;;;;;22.78;61.02;98541.22;7314491;19;129813;-71
2022/12/10 10:00:36;;;;;;;23.92;4.30;;;;;;;22.69;61.42;98523.09;7314904;19;129155;-71
2022/12/10 10:03:03;;;;;;;15.15;3.35;;;;;;;22.81;59.95;98546.09;7331562;19;129121;-73
2022/12/10 10:05:32;;;;;;;29.35;4.43;;;;;;;22.80;59.76;98541.03;7316086;19;129211;-74
2022/12/10 10:08:02;;;;;;;20.67;3.90;;;;;;;22.80;60.89;98551.50;7312103;19;134357;-71
2022/12/10 10:10:34;;;;;;;30.80;4.45;;;;;;;22.80;61.23;98551.50;7312203;19;131023;-73
2022/12/10 10:13:08;;;;;;;29.55;4.25;;;;;;;22.80;61.19;98546.28;7314998;19;129316;-73
2022/12/10 10:15:40;;;;;;;23.42;4.03;;;;;;;22.77;61.23;98546.63;7313279;19;129551;-73
2022/12/10 10:18:09;;;;;;;31.38;4.70;;;;;;;22.79;60.34;98539.41;7311526;19;133339;-71
2022/12/10 10:20:35;;;;;;;66.25;6.40;;;;;;;22.76;60.40;98539.72;7312193;19;129963;-73
2022/12/10 10:23:01;;;;;;;29.35;4.40;;;;;;;22.77;59.66;98541.38;7313529;19;130566;-74
2022/12/10 10:25:28;;;;;;;24.00;4.20;;;;;;;22.74;60.49;98533.88;7313610;19;129449;-72
2022/12/10 10:27:53;;;;;;;;;;;;;;;22.77;61.69;98538.75;7313611;19;129811;-73
2022/12/10 10:30:21;;;;;;;40.55;4.78;;;;;;;22.72;60.14;98533.22;7313588;19;129367;-74
2022/12/10 10:32:55;;;;;;;35.28;4.57;;;;;;;22.72;60.81;98535.84;7314409;19;128827;-73
2022/12/10 10:35:27;;;;;;;25.38;4.20;;;;;;;22.70;60.36;98540.44;7310152;19;128927;-71
2022/12/10 10:37:58;;;;;;;24.95;3.97;;;;;;;22.69;60.85;98533.56;7313712;19;129228;-73
2022/12/10 10:40:29;;;;;;;24.02;3.60;;;;;;;22.67;60.93;98536.38;7309975;19;132650;-73
2022/12/10 10:42:58;;;;;;;47.20;5.22;;;;;;;22.56;60.39;98514.97;7313318;19;130231;-72
2022/12/10 10:45:43;;;;;;;11.52;3.03;;;;;;;22.66;61.04;98529.47;7314761;19;128892;-71
2022/12/10 10:48:16;;;;;;;31.48;4.38;;;;;;;22.56;60.88;98514.97;7310415;19;131634;-73
2022/12/10 10:50:48;;;;;;;23.77;3.55;;;;;;;22.62;60.03;98527.38;7313762;19;129767;-71
2022/12/10 10:53:22;;;;;;;18.30;3.08;;;;;;;22.50;60.88;98510.38;7310515;19;130286;-72
2022/12/10 10:55:48;;;;;;;24.63;4.10;;;;;;;22.60;60.21;98531.97;7313145;19;129632;-70
2022/12/10 10:58:18;;;;;;;40.40;4.57;;;;;;;22.56;61.14;98521.00;7318601;19;129986;-73
2022/12/10 11:00:53;;;;;;;25.10;3.50;;;;;;;22.59;60.72;98527.72;7312306;19;129921;-72
2022/12/10 11:03:19;;;;;;;26.92;4.05;;;;;;;22.58;60.35;98531.31;7314431;19;128948;-74
2022/12/10 11:05:48;;;;;;;26.33;4.13;;;;;;;22.57;60.38;98525.28;7310388;19;130591;-71
2022/12/10 11:08:23;;;;;;;27.45;4.13;;;;;;;22.54;60.92;98530.88;7313244;19;129351;-73
2022/12/10 11:10:50;;;;;;;52.72;5.35;;;;;;;22.52;60.39;98521.50;7310910;19;129648;-71
2022/12/10 11:13:28;;;;;;;27.77;3.80;;;;;;;22.53;61.01;98534.47;7312488;19;129326;-72
2022/12/10 11:16:12;;;;;;;15.95;3.25;;;;;;;22.55;61.79;98531.66;7313647;19;129103;-71
2022/12/10 11:18:41;;;;;;;27.70;3.72;;;;;;;22.50;60.45;98521.69;7312430;19;129442;-73
2022/12/10 11:21:12;;;;;;;34.75;4.57;;;;;;;22.49;60.35;98527.09;7308469;19;131095;-71
2022/12/10 11:23:43;;;;;;;40.15;4.88;;;;;;;22.51;60.69;98527.75;7311040;19;129515;-71
2022/12/10 11:26:18;;;;;;;44.38;5.07;;;;;;;22.51;61.36;98530.34;7310398;19;129634;-71
2022/12/10 11:28:49;;;;;;;43.25;5.03;;;;;;;22.50;61.06;98526.09;7312323;19;129252;-73
2022/12/10 11:31:39;;;;;;;28.45;4.25;;;;;;;22.47;61.92;98526.44;7312380;19;130002;-73
2022/12/10 11:34:18;;;;;;;45.33;5.38;;;;;;;22.49;61.47;98524.47;7315408;19;129202;-71
2022/12/10 11:36:55;;;;;;;26.95;3.72;;;;;;;22.49;61.04;98537.56;7318820;19;129448;-71
2022/12/10 11:39:39;;;;;;;;;;;;;;;22.48;61.56;98530.69;7319824;19;129562;-74
2022/12/10 11:42:18;;;;;;;36.80;4.03;;;;;;;22.44;61.12;98524.16;7314581;19;129704;-73